x

Columbia River Bar - 20nm West Of Columbia River Mouth (46029) Wave Buoy

5:50am - Sat 19th Aug 2017 All times are PDT. -7 hours from GMT.

  • Sig Wave height 5.6ft
  • Swell Direction
  • Peak Period 8s
  • Average Period 6s
  • Wind
    18mph, 22mph gusts
  • Sea Temp 61°f
  • Air Temp 60°f
  • Sea Pressure 1023.5mb
  • Columbia River Bar - 20nm West Of Columbia River Mouth
  • Columbia River Bar - 20nm West Of Columbia River Mouth

More Historic Weather Station data

Upgrade to MSW Pro to gain access to the past 30 days of data for over 8000 Wavebouys and Weather Stations around the globe.

Join

Comparision Forecast

View Surf forecast
   
Sat 08/19 5:50am 5.5ft 8s 6s 18 22 mph 1023.5mb 61f 60f
4:50am 5.5ft 9s 6s 16 20 mph 1023.4mb 61f 60f
3:50am 6ft 9s 6s 18 20 mph 1023.4mb 61f 60f
2:50am 5.5ft 9s 6s 16 18 mph 1023.2mb 61f 60f
1:50am 5.5ft 9s 6s 16 20 mph 1023.2mb 61f 60f
12:50am 5.5ft 9s 7s 16 18 mph 1023.2mb 62f 60f
Fri 08/18 11:50pm 5.5ft 9s 7s 16 20 mph 1022.9mb 62f 61f
10:50pm 5ft 10s 7s 16 18 mph 1022.8mb 62f 61f
9:50pm 5ft 10s 7s 11 13 mph 1022.9mb 62f 61f
8:50pm 5.5ft 10s 8s 11 13 mph 1022.7mb 62f 61f
7:50pm 5ft 10s 8s 11 13 mph 1022.4mb 64f 62f
6:50pm 4.5ft 8s 8s 7 9 mph 1022.6mb 64f 63f
5:50pm 4.5ft 11s 7s 7 7 mph 1022.7mb 65f 63f
4:50pm 4.5ft 10s 7s 7 9 mph 1023mb 64f 63f
2:50pm 4.5ft 11s 7s 7 7 mph 1023.6mb 64f 61f
1:50pm 4.5ft 11s 7s 7 9 mph 1023.6mb 64f 61f
12:50pm 5ft 9s 8s 2 4 mph 1023.6mb 63f 61f
11:50am 4.5ft 11s 7s  -  2 mph 1023.5mb 63f 61f
10:50am 5.5ft 11s 8s 2 4 mph 1023.3mb 62f 61f
9:50am 6ft 11s 8s 4 4 mph 1023.2mb 61f 60f
8:50am 5ft 10s 7s 7 7 mph 1023.2mb 61f 60f
7:50am 5.5ft 10s 7s 11 13 mph 1022.9mb 61f 61f
6:50am 5ft 10s 7s 11 13 mph 1022.7mb 61f 60f
5:50am 6ft 11s 7s 9 13 mph 1022.4mb 61f 60f
4:50am 6ft 11s 7s 13 18 mph 1022.4mb 61f 60f
3:50am 6ft 11s 7s 16 20 mph 1022.2mb 61f 60f
2:50am 6ft 11s 7s 16 20 mph 1022.1mb 61f 60f
1:50am 6ft 10s 7s 16 20 mph 1022.4mb 62f 60f
12:50am 6ft 11s 7s 16 20 mph 1022.6mb 62f 60f
Thu 08/17 11:50pm 6ft 11s 7s 18 20 mph 1022.9mb 62f 61f
10:50pm 7ft 11s 8s 16 20 mph 1022.8mb 63f 61f
9:50pm 6ft 11s 8s 13 16 mph 1022.8mb 62f 61f
8:50pm 6ft 11s 8s 13 18 mph 1022.4mb 63f 61f
7:50pm 6ft 11s 8s 11 13 mph 1022.5mb 63f 61f
6:50pm 6ft 11s 8s 11 13 mph 1022.7mb 63f 61f
5:50pm 8ft 11s 9s 11 13 mph 1022.8mb 63f 61f
4:50pm 7ft 11s 8s 9 11 mph 1023.4mb 63f 61f
3:50pm 7.5ft 11s 9s 9 9 mph 1023.7mb 62f 61f
2:50pm 7ft 12s 8s 7 9 mph 1023.9mb 61f 61f
1:50pm 6.5ft 12s 8s 7 9 mph 1024.1mb 61f 61f
12:50pm 6ft 11s 8s 7 9 mph 1024mb 60f 60f
11:50am 6ft 11s 8s 4 7 mph 1023.9mb 60f 60f
10:50am 6.5ft 11s 7s 7 7 mph 1023.6mb 60f 60f
9:50am 6ft 11s 7s 9 11 mph 1023.4mb 60f 60f
8:50am 5.5ft 11s 7s 11 13 mph 1023.1mb 60f 60f
7:50am 5.5ft 10s 7s 9 11 mph 1022.7mb 60f 60f
6:50am 5ft 10s 7s 13 16 mph 1022.4mb 60f 60f
5:50am 6ft 10s 7s 13 16 mph 1022mb 60f 61f
4:50am 5.5ft 10s 7s 11 11 mph 1021.8mb 59f 61f
3:50am 5.5ft 10s 7s 9 9 mph 1021.9mb 59f 60f
2:50am 5ft 10s 7s 7 11 mph 1021.9mb 59f 60f
1:50am 4.5ft 10s 7s 9 9 mph 1021.8mb 60f 60f
12:50am 4.5ft 9s 7s 11 13 mph 1021.8mb 61f 61f
Wed 08/16 11:50pm 4.5ft 9s 7s 11 13 mph 1021.6mb 61f 61f
10:50pm 4.5ft 10s 7s 9 9 mph 1021.5mb 61f 61f
9:50pm 4.5ft 10s 8s 9 11 mph 1021.5mb 62f 61f
8:50pm 5ft 11s 8s 9 11 mph 1021mb 62f 61f
7:50pm 5ft 9s 8s 9 9 mph 1020.7mb 62f 61f
6:50pm 5.5ft 10s 8s 9 11 mph 1020.9mb 63f 62f
5:50pm 5ft 10s 7s 7 7 mph 1021mb 64f 63f
4:50pm 6ft 9s 7s 7 7 mph 1021.3mb 64f 63f
3:50pm 5ft 9s 7s 4 7 mph 1021.7mb 63f 62f
2:50pm 5.5ft 10s 8s 2 4 mph 1022mb 63f 62f
1:50pm 6ft 10s 8s  -  2 mph 1022mb 61f 61f
12:50pm 5ft 10s 7s 4 7 mph 1021.8mb 61f 60f
11:50am 5ft 10s 8s 4 7 mph 1021.5mb 61f 60f
10:50am 5.5ft 10s 8s 9 9 mph 1021.2mb 60f 60f
9:50am 5.5ft 10s 8s 7 7 mph 1021.1mb 60f 60f
8:50am 6ft 10s 8s 4 4 mph 1020.8mb 60f 60f
7:50am 5ft 10s 8s 4 7 mph 1020.2mb 60f 60f
6:50am 5ft 11s 7s 7 7 mph 1020mb 60f 60f
5:50am 6ft 9s 8s 7 9 mph 1019.6mb 60f 61f
4:50am 6ft 10s 7s 11 13 mph 1019.5mb 60f 61f
3:50am 5.5ft 10s 7s 7 9 mph 1019.4mb 60f 60f
2:50am 5.5ft 10s 7s 7 9 mph 1019.2mb 60f 60f
1:50am 6ft 10s 7s 11 11 mph 1019mb 60f 60f
12:50am 5ft 10s 6s 11 13 mph 1018.9mb 60f 60f
Tue 08/15 11:50pm 4.5ft 10s 6s 11 16 mph 1018.6mb 60f 60f
10:50pm 4.5ft 10s 6s 11 13 mph 1018.3mb 60f 60f
9:50pm 4ft 9s 6s 13 16 mph 1018.1mb 60f 60f
8:50pm 4ft 8s 5s 16 18 mph 1017.5mb 61f 60f
7:50pm 4ft 8s 6s 16 18 mph 1016.9mb 61f 61f
6:50pm 4ft 8s 5s 16 18 mph 1017mb 61f 61f
5:50pm 4.5ft 9s 5s 16 20 mph 1016.7mb 61f 61f
4:50pm 3.5ft 9s 5s 16 20 mph 1016.8mb 60f 61f
3:50pm 4ft 8s 5s 16 18 mph 1016.9mb 60f 60f
2:50pm 4.5ft 9s 5s 16 18 mph 1016.9mb 60f 60f
1:50pm 4.5ft 9s 5s 16 20 mph 1016.8mb 60f 59f